createdAt,value
2018-11-27T00:00:09.492Z,959.9
2018-11-27T00:10:12.951Z,960.4
2018-11-27T00:20:16.394Z,960.6
2018-11-27T00:30:19.853Z,960.5
2018-11-27T00:40:23.314Z,960.5
2018-11-27T00:50:26.775Z,960.8
2018-11-27T01:00:30.204Z,960.7
2018-11-27T01:10:33.666Z,960.7
2018-11-27T01:20:37.098Z,961.1
2018-11-27T01:30:40.539Z,960.9
2018-11-27T01:40:43.992Z,960.9
2018-11-27T01:50:47.447Z,961.4
2018-11-27T02:00:50.895Z,960.9
2018-11-27T02:10:54.328Z,960.9
2018-11-27T02:20:57.700Z,961.2
2018-11-27T02:31:01.129Z,961
2018-11-27T02:41:04.572Z,961.1
2018-11-27T02:51:07.995Z,961.2
2018-11-27T03:01:11.489Z,961.3
2018-11-27T03:11:14.917Z,961.2
2018-11-27T03:21:18.345Z,961.6
2018-11-27T03:31:22.530Z,961.7
2018-11-27T03:41:26.035Z,961.7
2018-11-27T03:51:29.489Z,961.5
2018-11-27T04:01:32.985Z,961.8
2018-11-27T04:11:36.496Z,962
2018-11-27T04:21:39.964Z,962.1
2018-11-27T04:31:43.380Z,962.3
2018-11-27T04:41:46.837Z,962.2
2018-11-27T04:51:50.266Z,962.4
2018-11-27T05:01:53.721Z,962.6
2018-11-27T05:11:57.167Z,962.7
2018-11-27T05:22:00.584Z,962.8
2018-11-27T05:32:04.009Z,963.2
2018-11-27T05:42:07.451Z,963.2
2018-11-27T05:52:10.896Z,963.4
2018-11-27T06:02:14.334Z,963.9
2018-11-27T06:12:17.740Z,964.3
2018-11-27T06:22:21.190Z,964.4
2018-11-27T06:32:24.638Z,964.5
2018-11-27T06:42:28.079Z,964.3
2018-11-27T06:52:31.496Z,964.6
2018-11-27T07:02:34.936Z,964.4
2018-11-27T07:12:38.347Z,964.7
2018-11-27T07:22:41.759Z,964.8
2018-11-27T07:32:45.188Z,964.9
2018-11-27T07:42:48.592Z,965
2018-11-27T07:52:52.000Z,965
2018-11-27T08:02:55.447Z,965
2018-11-27T08:12:58.876Z,965.5
2018-11-27T08:23:02.317Z,965.2
2018-11-27T08:33:05.747Z,965.3
2018-11-27T08:43:09.174Z,965.7
2018-11-27T08:53:12.575Z,965.6
2018-11-27T09:03:17.033Z,965.7
2018-11-27T09:13:20.457Z,965.6
2018-11-27T09:23:23.916Z,965.8
2018-11-27T09:33:27.367Z,965.9
2018-11-27T09:43:30.819Z,965.7
2018-11-27T09:53:34.476Z,965.6
2018-11-27T10:03:37.972Z,965.5
2018-11-27T10:13:41.422Z,965.4
2018-11-27T10:23:44.876Z,965
2018-11-27T10:33:48.290Z,965.3
2018-11-27T10:43:51.736Z,965
2018-11-27T10:53:55.169Z,964.9
2018-11-27T11:03:58.601Z,965.1
2018-11-27T11:14:02.043Z,964.8
2018-11-27T11:24:05.446Z,964.8
2018-11-27T11:34:08.887Z,965
2018-11-27T11:44:12.312Z,965.2
2018-11-27T11:54:15.709Z,965.3
2018-11-27T12:04:19.144Z,965.4
2018-11-27T12:14:22.602Z,965.3
2018-11-27T12:24:26.030Z,965.2
2018-11-27T12:34:29.455Z,965.1
2018-11-27T12:44:32.866Z,965.3
2018-11-27T12:54:36.281Z,965.4
2018-11-27T13:04:39.706Z,965.6
2018-11-27T13:14:43.111Z,965.5
2018-11-27T13:24:46.552Z,965.4
2018-11-27T13:34:52.900Z,965.5
2018-11-27T13:44:56.339Z,965.5
2018-11-27T13:54:59.760Z,965.8
2018-11-27T14:05:03.193Z,965.7
2018-11-27T14:15:06.668Z,965.7
2018-11-27T14:25:11.083Z,966.2
2018-11-27T14:35:14.519Z,966
2018-11-27T14:45:17.946Z,966
2018-11-27T14:55:21.372Z,966.2
2018-11-27T15:05:24.818Z,966.5
2018-11-27T15:15:28.263Z,966.7
2018-11-27T15:25:31.651Z,966.7
2018-11-27T15:35:35.084Z,966.6
2018-11-27T15:45:38.531Z,966.7
2018-11-27T15:55:41.998Z,967.1
2018-11-27T16:05:45.385Z,967
2018-11-27T16:15:48.809Z,967.1
2018-11-27T16:25:52.257Z,967.3
2018-11-27T16:35:55.710Z,967.6
2018-11-27T16:45:59.133Z,967.5
2018-11-27T16:56:03.448Z,967.8
2018-11-27T17:06:06.858Z,967.4
2018-11-27T17:16:10.377Z,968
2018-11-27T17:26:13.799Z,967.7
2018-11-27T17:36:17.252Z,967.9
2018-11-27T17:46:20.664Z,967.6
2018-11-27T17:56:24.099Z,968
2018-11-27T18:06:27.562Z,968.2
2018-11-27T18:16:31.005Z,968.4
2018-11-27T18:26:34.447Z,968.5
2018-11-27T18:36:37.891Z,968.6
2018-11-27T18:46:41.322Z,968.3
2018-11-27T18:56:44.770Z,968.3
2018-11-27T19:06:48.229Z,968.6
2018-11-27T19:16:51.640Z,968.7
2018-11-27T19:26:55.092Z,968.8
2018-11-27T19:36:58.515Z,968.8
2018-11-27T19:47:01.950Z,968.9
2018-11-27T19:57:05.346Z,969.1
2018-11-27T20:07:08.778Z,968.8
2018-11-27T20:17:12.173Z,968.8
2018-11-27T20:27:15.584Z,968.7
2018-11-27T20:37:19.040Z,968.7
2018-11-27T20:47:22.466Z,968.8
2018-11-27T20:57:25.871Z,968.9
2018-11-27T21:07:29.376Z,969.2
2018-11-27T21:17:33.559Z,969.3
2018-11-27T21:27:37.069Z,969.3
2018-11-27T21:37:40.774Z,969.5
2018-11-27T21:47:44.259Z,969.5
2018-11-27T21:57:47.704Z,969.6
2018-11-27T22:07:51.159Z,969.5
2018-11-27T22:17:54.582Z,969.8
2018-11-27T22:27:59.042Z,969.6
2018-11-27T22:38:02.494Z,969.8
2018-11-27T22:48:05.904Z,969.6
2018-11-27T22:58:09.345Z,969.8
2018-11-27T23:08:12.784Z,969.7
2018-11-27T23:18:16.230Z,969.6
2018-11-27T23:28:19.658Z,969.7
2018-11-27T23:38:23.088Z,969.6
2018-11-27T23:48:26.501Z,969.8
2018-11-27T23:58:29.936Z,969.6
